createdAt,value
2023-03-26T00:02:08.470Z,8.70
2023-03-26T00:04:38.329Z,8.70
2023-03-26T00:07:07.192Z,8.70
2023-03-26T00:09:35.999Z,8.70
2023-03-26T00:12:02.931Z,8.70
2023-03-26T00:14:30.344Z,8.70
2023-03-26T00:16:59.453Z,8.70
2023-03-26T00:19:26.100Z,8.60
2023-03-26T00:21:53.257Z,8.70
2023-03-26T00:24:19.924Z,8.70
2023-03-26T00:26:53.050Z,8.70
2023-03-26T00:29:19.731Z,8.80
2023-03-26T00:31:48.917Z,8.80
2023-03-26T00:34:18.518Z,8.80
2023-03-26T00:36:46.787Z,8.80
2023-03-26T00:39:14.146Z,8.80
2023-03-26T00:41:43.164Z,8.90
2023-03-26T00:44:10.470Z,8.80
2023-03-26T00:46:37.358Z,8.80
2023-03-26T00:49:04.526Z,8.80
2023-03-26T00:51:34.980Z,8.80
2023-03-26T00:54:01.733Z,8.70
2023-03-26T00:56:30.897Z,8.60
2023-03-26T00:59:00.464Z,8.70
2023-03-26T01:01:29.142Z,8.70
2023-03-26T01:04:08.905Z,8.70
2023-03-26T01:06:38.813Z,8.70
2023-03-26T01:09:24.972Z,8.60
2023-03-26T01:11:51.599Z,8.60
2023-03-26T01:14:23.687Z,8.60
2023-03-26T01:16:55.555Z,8.50
2023-03-26T01:19:30.913Z,8.50
2023-03-26T01:21:58.856Z,8.30
2023-03-26T01:24:27.641Z,8.30
2023-03-26T01:26:54.295Z,8.20
2023-03-26T01:29:26.339Z,8.10
2023-03-26T01:32:09.506Z,8.00
2023-03-26T01:34:42.055Z,7.90
2023-03-26T01:37:17.606Z,7.90
2023-03-26T01:39:57.428Z,7.80
2023-03-26T01:42:39.834Z,7.70
2023-03-26T01:45:12.171Z,7.60
2023-03-26T01:47:41.344Z,7.60
2023-03-26T01:50:11.119Z,7.60
2023-03-26T01:52:38.195Z,7.60
2023-03-26T01:55:06.530Z,7.60
2023-03-26T01:57:36.359Z,7.60
2023-03-26T02:00:23.951Z,7.60
2023-03-26T02:03:18.341Z,7.60
2023-03-26T02:06:09.822Z,7.60
2023-03-26T02:08:48.445Z,7.60
2023-03-26T02:11:16.605Z,7.60
2023-03-26T02:13:45.768Z,7.60
2023-03-26T02:16:17.496Z,7.60
2023-03-26T02:18:51.348Z,7.60
2023-03-26T02:21:21.334Z,7.60
2023-03-26T02:23:57.794Z,7.60
2023-03-26T02:26:26.949Z,7.60
2023-03-26T02:28:53.602Z,7.60
2023-03-26T02:31:21.735Z,7.60
2023-03-26T02:33:50.622Z,7.60
2023-03-26T02:36:19.611Z,7.60
2023-03-26T02:38:48.585Z,7.70
2023-03-26T02:41:17.710Z,7.70
2023-03-26T02:43:44.437Z,7.70
2023-03-26T02:46:13.477Z,7.70
2023-03-26T02:48:41.425Z,7.70
2023-03-26T02:51:10.449Z,7.80
2023-03-26T02:53:37.537Z,7.90
2023-03-26T02:56:06.910Z,7.90
2023-03-26T02:58:33.793Z,8.00
2023-03-26T03:01:03.069Z,8.00
2023-03-26T03:03:29.964Z,7.90
2023-03-26T03:06:02.579Z,8.00
2023-03-26T03:08:29.426Z,8.00
2023-03-26T03:11:09.045Z,8.00
2023-03-26T03:13:35.840Z,8.00
2023-03-26T03:16:02.857Z,8.00
2023-03-26T03:18:29.617Z,8.10
2023-03-26T03:20:58.498Z,8.10
2023-03-26T03:23:28.656Z,8.10
2023-03-26T03:25:58.949Z,8.20
2023-03-26T03:28:28.104Z,8.10
2023-03-26T03:30:57.476Z,8.10
2023-03-26T03:33:24.271Z,8.20
2023-03-26T03:35:53.865Z,8.10
2023-03-26T03:38:23.236Z,8.10
2023-03-26T03:40:49.875Z,8.20
2023-03-26T03:43:19.039Z,8.20
2023-03-26T03:45:45.789Z,8.10
2023-03-26T03:48:12.459Z,8.20
2023-03-26T03:50:41.832Z,8.20
2023-03-26T03:53:15.736Z,8.20
2023-03-26T03:55:42.901Z,8.20
2023-03-26T03:58:09.802Z,8.10
2023-03-26T04:00:41.606Z,8.20
2023-03-26T04:03:08.387Z,8.10
2023-03-26T04:05:35.120Z,8.20
2023-03-26T04:08:01.877Z,8.10
2023-03-26T04:10:30.655Z,8.20
2023-03-26T04:12:57.388Z,8.10
2023-03-26T04:15:26.272Z,8.10
2023-03-26T04:17:55.469Z,8.10
2023-03-26T04:20:22.208Z,8.10
2023-03-26T04:22:51.090Z,8.10
2023-03-26T04:25:17.754Z,8.10
2023-03-26T04:27:47.777Z,8.10
2023-03-26T04:30:20.563Z,8.10
2023-03-26T04:32:47.400Z,8.10
2023-03-26T04:35:16.621Z,8.00
2023-03-26T04:37:44.398Z,8.00
2023-03-26T04:40:17.286Z,8.00
2023-03-26T04:42:46.520Z,8.00
2023-03-26T04:45:17.865Z,8.00
2023-03-26T04:47:48.627Z,7.90
2023-03-26T04:50:17.625Z,7.90
2023-03-26T04:52:45.384Z,7.90
2023-03-26T04:55:38.543Z,7.90
2023-03-26T04:58:09.401Z,7.90
2023-03-26T05:00:38.595Z,7.90
2023-03-26T05:03:06.208Z,7.90
2023-03-26T05:05:32.959Z,7.90
2023-03-26T05:08:01.745Z,8.00
2023-03-26T05:10:28.505Z,8.00
2023-03-26T05:12:57.569Z,8.00
2023-03-26T05:15:29.210Z,8.00
2023-03-26T05:17:55.996Z,8.00
2023-03-26T05:20:26.385Z,8.00
2023-03-26T05:22:56.303Z,8.00
2023-03-26T05:25:23.226Z,8.00
2023-03-26T05:27:49.856Z,8.00
2023-03-26T05:30:21.787Z,8.00
2023-03-26T05:32:53.272Z,8.00
2023-03-26T05:35:22.754Z,8.10
2023-03-26T05:37:51.330Z,8.10
2023-03-26T05:40:21.273Z,8.10
2023-03-26T05:42:47.900Z,8.10
2023-03-26T05:45:15.447Z,8.20
2023-03-26T05:47:47.782Z,8.20
2023-03-26T05:50:14.496Z,8.20
2023-03-26T05:52:46.168Z,8.20
2023-03-26T05:55:15.999Z,8.20
2023-03-26T05:57:42.843Z,8.20
2023-03-26T06:00:14.995Z,8.10
2023-03-26T06:02:42.868Z,8.10
2023-03-26T06:05:10.049Z,8.00
2023-03-26T06:07:39.210Z,8.00
2023-03-26T06:10:06.600Z,7.90
2023-03-26T06:12:36.861Z,7.90
2023-03-26T06:15:04.229Z,7.90
2023-03-26T06:17:33.056Z,7.90
2023-03-26T06:19:59.785Z,7.80
2023-03-26T06:22:26.428Z,7.90
2023-03-26T06:24:56.123Z,7.90
2023-03-26T06:27:22.737Z,7.90
2023-03-26T06:29:49.457Z,7.80
2023-03-26T06:32:20.097Z,7.80
2023-03-26T06:34:52.039Z,7.90
2023-03-26T06:37:18.685Z,7.90
2023-03-26T06:39:45.888Z,7.90
2023-03-26T06:42:15.369Z,7.90
2023-03-26T06:44:44.526Z,8.00
2023-03-26T06:47:11.322Z,8.00
2023-03-26T06:49:38.111Z,8.00
2023-03-26T06:52:07.641Z,8.00
2023-03-26T06:54:34.276Z,8.10
2023-03-26T06:57:05.518Z,8.10
2023-03-26T06:59:32.366Z,8.10
2023-03-26T07:02:01.296Z,8.10
2023-03-26T07:04:28.035Z,8.10
2023-03-26T07:06:56.938Z,8.10
2023-03-26T07:09:23.757Z,8.10
2023-03-26T07:11:50.381Z,8.10
2023-03-26T07:14:24.519Z,8.20
2023-03-26T07:16:51.860Z,8.20
2023-03-26T07:19:18.518Z,8.20
2023-03-26T07:21:47.736Z,8.20
2023-03-26T07:24:17.065Z,8.20
2023-03-26T07:27:00.706Z,8.20
2023-03-26T07:29:39.502Z,8.30
2023-03-26T07:32:24.912Z,8.30
2023-03-26T07:35:15.944Z,8.20
2023-03-26T07:38:26.296Z,8.20
2023-03-26T07:41:17.154Z,8.20
2023-03-26T07:43:55.765Z,8.10
2023-03-26T07:46:29.656Z,8.20
2023-03-26T07:48:58.554Z,8.20
2023-03-26T07:51:32.798Z,8.20
2023-03-26T07:54:04.550Z,8.30
2023-03-26T07:56:44.456Z,8.20
2023-03-26T07:59:22.125Z,8.20
2023-03-26T08:02:34.276Z,8.20
2023-03-26T08:05:04.084Z,8.20
2023-03-26T08:07:30.856Z,8.20
2023-03-26T08:10:08.226Z,8.20
2023-03-26T08:13:02.457Z,8.20
2023-03-26T08:15:32.596Z,8.20
2023-03-26T08:18:21.787Z,8.10
2023-03-26T08:20:58.108Z,8.10
2023-03-26T08:23:50.536Z,8.10
2023-03-26T08:26:23.985Z,8.10
2023-03-26T08:29:14.256Z,8.10
2023-03-26T08:31:42.425Z,8.10
2023-03-26T08:34:13.280Z,8.10
2023-03-26T08:36:40.067Z,8.10
2023-03-26T08:39:10.118Z,8.10
2023-03-26T08:41:54.835Z,8.10
2023-03-26T08:44:47.681Z,8.10
2023-03-26T08:48:01.911Z,8.10
2023-03-26T08:50:47.372Z,8.10
2023-03-26T08:53:32.122Z,8.00
2023-03-26T08:56:18.918Z,8.00
2023-03-26T08:59:23.950Z,8.10
2023-03-26T09:02:22.616Z,8.10
2023-03-26T09:05:08.031Z,8.10
2023-03-26T09:07:43.930Z,8.10
2023-03-26T09:10:52.148Z,8.00
2023-03-26T09:13:37.003Z,7.90
2023-03-26T09:16:37.803Z,7.90
2023-03-26T09:19:19.624Z,7.90
2023-03-26T09:22:01.289Z,7.80
2023-03-26T09:24:44.904Z,7.80
2023-03-26T09:27:35.873Z,7.70
2023-03-26T09:30:19.476Z,7.60
2023-03-26T09:33:18.456Z,7.60
2023-03-26T09:35:57.085Z,7.60
2023-03-26T09:38:41.647Z,7.60
2023-03-26T09:41:13.610Z,7.60
2023-03-26T09:44:21.664Z,7.70
2023-03-26T09:47:03.295Z,7.80
2023-03-26T09:49:46.115Z,7.80
2023-03-26T09:52:33.857Z,7.80
2023-03-26T09:55:25.986Z,7.90
2023-03-26T09:57:58.278Z,8.00
2023-03-26T10:00:36.264Z,8.10
2023-03-26T10:03:21.253Z,8.20
2023-03-26T10:06:21.114Z,8.30
2023-03-26T10:09:02.816Z,8.40
2023-03-26T10:11:50.594Z,8.40
2023-03-26T10:14:29.351Z,8.40
2023-03-26T10:17:05.214Z,8.40
2023-03-26T10:19:58.934Z,8.40
2023-03-26T10:22:43.629Z,8.40
2023-03-26T10:25:41.030Z,8.40
2023-03-26T10:28:18.951Z,8.40
2023-03-26T10:31:12.981Z,8.50
2023-03-26T10:33:45.665Z,8.50
2023-03-26T10:36:34.404Z,8.60
2023-03-26T10:39:48.758Z,8.90
2023-03-26T10:42:36.990Z,9.10
2023-03-26T10:45:43.686Z,9.20
2023-03-26T10:48:23.670Z,9.30
2023-03-26T10:51:08.395Z,9.30
2023-03-26T10:53:54.654Z,9.30
2023-03-26T10:56:27.289Z,9.20
2023-03-26T10:58:58.057Z,9.10
2023-03-26T11:01:51.501Z,9.20
2023-03-26T11:04:25.341Z,9.30
2023-03-26T11:07:35.857Z,9.40
2023-03-26T11:10:19.449Z,9.50
2023-03-26T11:12:54.818Z,9.60
2023-03-26T11:15:27.192Z,9.70
2023-03-26T11:18:15.924Z,9.90
2023-03-26T11:20:54.111Z,10.10
2023-03-26T11:23:40.509Z,10.20
2023-03-26T11:26:13.458Z,10.30
2023-03-26T11:29:32.903Z,10.30
2023-03-26T11:32:12.306Z,10.10
2023-03-26T11:34:52.948Z,9.90
2023-03-26T11:37:33.055Z,9.70
2023-03-26T11:40:07.391Z,9.60
2023-03-26T11:42:34.226Z,9.70
2023-03-26T11:45:05.237Z,9.70
2023-03-26T11:48:09.262Z,9.50
2023-03-26T11:50:43.924Z,9.30
2023-03-26T11:53:14.669Z,9.30
2023-03-26T11:55:50.280Z,9.30
2023-03-26T11:58:39.552Z,9.20
2023-03-26T12:01:17.614Z,9.20
2023-03-26T12:04:03.526Z,9.20
2023-03-26T12:06:30.253Z,9.20
2023-03-26T12:08:59.353Z,9.40
2023-03-26T12:11:35.290Z,9.50
2023-03-26T12:14:05.073Z,9.50
2023-03-26T12:16:32.277Z,9.60
2023-03-26T12:19:00.860Z,9.80
2023-03-26T12:21:44.958Z,9.90
2023-03-26T12:24:27.974Z,10.00
2023-03-26T12:27:24.014Z,10.10
2023-03-26T12:30:08.789Z,10.40
2023-03-26T12:32:46.780Z,10.60
2023-03-26T12:35:19.812Z,10.90
2023-03-26T12:37:47.646Z,11.10
2023-03-26T12:40:36.766Z,11.20
2023-03-26T12:44:47.003Z,11.30
2023-03-26T12:47:55.086Z,11.40
2023-03-26T12:49:20.252Z,11.40
2023-03-26T12:51:49.799Z,11.30
2023-03-26T12:54:28.795Z,11.20
2023-03-26T12:57:12.231Z,11.20
2023-03-26T12:59:58.449Z,11.10
2023-03-26T13:02:43.994Z,11.10
2023-03-26T13:05:28.873Z,10.80
2023-03-26T13:08:23.992Z,10.70
2023-03-26T13:11:05.672Z,10.60
2023-03-26T13:13:56.264Z,10.40
2023-03-26T13:16:36.314Z,10.30
2023-03-26T13:19:06.044Z,10.30
2023-03-26T13:21:32.760Z,10.20
2023-03-26T13:24:40.218Z,10.30
2023-03-26T13:27:30.774Z,10.10
2023-03-26T13:30:32.911Z,10.10
2023-03-26T13:33:20.968Z,9.90
2023-03-26T13:35:50.728Z,9.90
2023-03-26T13:38:35.707Z,9.80
2023-03-26T13:41:27.949Z,9.70
2023-03-26T13:43:57.328Z,9.90
2023-03-26T13:46:31.256Z,9.80
2023-03-26T13:49:08.321Z,9.90
2023-03-26T13:51:55.433Z,10.00
2023-03-26T13:54:45.771Z,10.00
2023-03-26T13:57:25.418Z,9.70
2023-03-26T14:00:12.533Z,9.90
2023-03-26T14:02:53.356Z,9.90
2023-03-26T14:05:41.578Z,10.10
2023-03-26T14:08:27.280Z,10.30
2023-03-26T14:11:14.254Z,10.70
2023-03-26T14:13:54.653Z,10.70
2023-03-26T14:16:34.511Z,11.00
2023-03-26T14:19:41.462Z,11.40
2023-03-26T14:22:07.976Z,11.60
2023-03-26T14:24:51.389Z,11.70
2023-03-26T14:27:39.162Z,11.70
2023-03-26T14:30:42.031Z,11.70
2023-03-26T14:33:38.419Z,11.50
2023-03-26T14:36:23.843Z,11.20
2023-03-26T14:39:01.230Z,11.00
2023-03-26T14:41:32.275Z,10.80
2023-03-26T14:44:17.773Z,10.70
2023-03-26T14:47:07.051Z,10.50
2023-03-26T14:50:08.344Z,10.50
2023-03-26T14:52:48.952Z,10.40
2023-03-26T14:56:15.051Z,10.50
2023-03-26T14:59:25.506Z,10.50
2023-03-26T15:02:29.721Z,10.40
2023-03-26T15:05:33.854Z,10.20
2023-03-26T15:08:38.701Z,10.20
2023-03-26T15:11:16.162Z,10.30
2023-03-26T15:14:01.015Z,10.40
2023-03-26T15:16:55.536Z,10.30
2023-03-26T15:19:49.190Z,10.00
2023-03-26T15:22:43.154Z,10.00
2023-03-26T15:25:38.808Z,9.60
2023-03-26T15:28:38.141Z,9.40
2023-03-26T15:31:31.692Z,9.20
2023-03-26T15:34:18.328Z,9.10
2023-03-26T15:37:11.944Z,9.00
2023-03-26T15:40:09.714Z,8.90
2023-03-26T15:42:53.838Z,8.70
2023-03-26T15:45:39.607Z,8.60
2023-03-26T15:48:12.610Z,8.60
2023-03-26T15:50:56.152Z,8.70
2023-03-26T15:53:25.674Z,8.70
2023-03-26T15:56:05.195Z,8.60
2023-03-26T15:58:42.925Z,8.60
2023-03-26T16:01:21.278Z,8.60
2023-03-26T16:04:26.365Z,8.70
2023-03-26T16:07:09.660Z,8.60
2023-03-26T16:10:09.081Z,8.50
2023-03-26T16:12:55.890Z,8.30
2023-03-26T16:15:33.377Z,8.30
2023-03-26T16:18:15.547Z,8.20
2023-03-26T16:21:03.120Z,8.20
2023-03-26T16:23:31.937Z,8.30
2023-03-26T16:25:58.965Z,8.20
2023-03-26T16:28:34.591Z,8.20
2023-03-26T16:31:36.699Z,8.10
2023-03-26T16:34:10.238Z,8.20
2023-03-26T16:36:40.386Z,8.20
2023-03-26T16:39:08.235Z,8.30
2023-03-26T16:41:56.824Z,8.40
2023-03-26T16:44:40.193Z,8.40
2023-03-26T16:47:27.348Z,8.30
2023-03-26T16:50:08.308Z,8.40
2023-03-26T16:52:36.476Z,8.30
2023-03-26T16:55:25.483Z,8.30
2023-03-26T16:58:10.898Z,8.30
2023-03-26T17:01:15.910Z,8.30
2023-03-26T17:03:59.731Z,8.40
2023-03-26T17:07:14.064Z,8.30
2023-03-26T17:10:08.468Z,8.30
2023-03-26T17:12:49.652Z,8.30
2023-03-26T17:15:28.647Z,8.20
2023-03-26T17:17:57.827Z,8.20
2023-03-26T17:20:38.222Z,8.20
2023-03-26T17:23:10.388Z,8.20
2023-03-26T17:26:03.988Z,8.20
2023-03-26T17:28:59.660Z,8.20
2023-03-26T17:31:42.909Z,8.20
2023-03-26T17:34:34.779Z,8.20
2023-03-26T17:37:05.318Z,8.20
2023-03-26T17:39:43.290Z,8.20
2023-03-26T17:42:15.914Z,8.20
2023-03-26T17:44:55.518Z,8.10
2023-03-26T17:47:51.633Z,8.10
2023-03-26T17:50:24.272Z,8.10
2023-03-26T17:53:12.890Z,8.00
2023-03-26T17:55:43.384Z,7.90
2023-03-26T17:58:25.347Z,7.80
2023-03-26T18:01:02.841Z,7.80
2023-03-26T18:03:55.878Z,7.80
2023-03-26T18:06:54.609Z,7.70
2023-03-26T18:09:39.793Z,7.70
2023-03-26T18:12:36.934Z,7.70
2023-03-26T18:15:34.738Z,7.70
2023-03-26T18:18:07.662Z,7.60
2023-03-26T18:20:37.471Z,7.60
2023-03-26T18:23:23.894Z,7.60
2023-03-26T18:26:08.145Z,7.50
2023-03-26T18:28:42.509Z,7.60
2023-03-26T18:31:26.816Z,7.60
2023-03-26T18:34:02.987Z,7.60
2023-03-26T18:36:32.389Z,7.50
2023-03-26T18:38:59.422Z,7.50
2023-03-26T18:41:41.417Z,7.50
2023-03-26T18:44:15.596Z,7.50
2023-03-26T18:46:47.534Z,7.50
2023-03-26T18:49:16.496Z,7.40
2023-03-26T18:51:56.157Z,7.40
2023-03-26T18:54:25.147Z,7.40
2023-03-26T18:56:52.607Z,7.40
2023-03-26T18:59:35.092Z,7.40
2023-03-26T19:02:11.968Z,7.30
2023-03-26T19:04:39.240Z,7.30
2023-03-26T19:07:13.632Z,7.30
2023-03-26T19:09:42.433Z,7.20
2023-03-26T19:12:29.207Z,7.20
2023-03-26T19:14:58.089Z,7.00
2023-03-26T19:17:29.513Z,7.00
2023-03-26T19:19:57.207Z,6.90
2023-03-26T19:22:24.900Z,6.80
2023-03-26T19:25:03.754Z,6.80
2023-03-26T19:27:30.555Z,6.80
2023-03-26T19:29:58.182Z,6.70
2023-03-26T19:32:32.984Z,6.60
2023-03-26T19:35:04.392Z,6.60
2023-03-26T19:37:31.315Z,6.50
2023-03-26T19:40:21.254Z,6.50
2023-03-26T19:42:50.579Z,6.40
2023-03-26T19:45:26.042Z,6.40
2023-03-26T19:48:00.405Z,6.40
2023-03-26T19:50:39.293Z,6.40
2023-03-26T19:53:30.496Z,6.50
2023-03-26T19:56:15.025Z,6.40
2023-03-26T19:58:47.219Z,6.30
2023-03-26T20:01:28.012Z,6.30
2023-03-26T20:03:58.016Z,6.30
2023-03-26T20:06:41.577Z,6.20
2023-03-26T20:09:10.834Z,6.20
2023-03-26T20:11:40.809Z,6.10
2023-03-26T20:14:17.334Z,6.10
2023-03-26T20:16:45.453Z,6.10
2023-03-26T20:19:17.991Z,6.00
2023-03-26T20:21:45.929Z,6.00
2023-03-26T20:24:15.585Z,6.00
2023-03-26T20:26:47.132Z,6.00
2023-03-26T20:29:17.404Z,6.00
2023-03-26T20:31:48.412Z,6.00
2023-03-26T20:34:21.766Z,6.00
2023-03-26T20:36:55.849Z,6.00
2023-03-26T20:39:25.188Z,6.00
2023-03-26T20:41:56.378Z,6.00
2023-03-26T20:44:23.396Z,5.90
2023-03-26T20:46:50.864Z,5.80
2023-03-26T20:49:22.050Z,5.70
2023-03-26T20:51:48.868Z,5.70
2023-03-26T20:54:24.341Z,5.60
2023-03-26T20:56:54.663Z,5.60
2023-03-26T20:59:26.419Z,5.50
2023-03-26T21:01:57.159Z,5.50
2023-03-26T21:04:24.952Z,5.50
2023-03-26T21:07:00.257Z,5.60
2023-03-26T21:09:35.466Z,5.50
2023-03-26T21:12:28.026Z,5.50
2023-03-26T21:14:55.765Z,5.50
2023-03-26T21:17:26.102Z,5.40
2023-03-26T21:19:55.537Z,5.40
2023-03-26T21:23:00.848Z,5.40
2023-03-26T21:25:46.374Z,5.40
2023-03-26T21:28:13.038Z,5.40
2023-03-26T21:30:42.434Z,5.30
2023-03-26T21:33:09.302Z,5.30
2023-03-26T21:35:36.248Z,5.20
2023-03-26T21:38:06.523Z,5.20
2023-03-26T21:40:35.929Z,5.20
2023-03-26T21:43:03.142Z,5.20
2023-03-26T21:45:30.313Z,5.10
2023-03-26T21:47:57.427Z,5.00
2023-03-26T21:50:26.775Z,5.00
2023-03-26T21:52:53.685Z,5.10
2023-03-26T21:55:24.415Z,5.10
2023-03-26T21:58:15.350Z,5.00
2023-03-26T22:00:47.354Z,4.90
2023-03-26T22:03:14.192Z,4.90
2023-03-26T22:06:09.039Z,4.90
2023-03-26T22:08:41.332Z,4.90
2023-03-26T22:11:10.113Z,4.80
2023-03-26T22:13:38.537Z,4.80
2023-03-26T22:16:09.627Z,4.80
2023-03-26T22:18:38.750Z,4.80
2023-03-26T22:21:10.278Z,4.80
2023-03-26T22:23:39.199Z,4.70
2023-03-26T22:26:08.249Z,4.60
2023-03-26T22:28:34.913Z,4.70
2023-03-26T22:31:08.685Z,4.60
2023-03-26T22:33:39.960Z,4.60
2023-03-26T22:36:23.472Z,4.50
2023-03-26T22:38:55.146Z,4.50
2023-03-26T22:41:22.864Z,4.50
2023-03-26T22:43:53.561Z,4.40
2023-03-26T22:46:21.710Z,4.40
2023-03-26T22:48:48.649Z,4.30
2023-03-26T22:51:16.065Z,4.20
2023-03-26T22:53:45.109Z,4.20
2023-03-26T22:56:13.837Z,4.10
2023-03-26T22:58:42.962Z,4.00
2023-03-26T23:01:17.641Z,4.00
2023-03-26T23:03:47.252Z,3.80
2023-03-26T23:06:17.065Z,3.80
2023-03-26T23:08:43.863Z,3.80
2023-03-26T23:11:14.451Z,3.70
2023-03-26T23:13:41.660Z,3.70
2023-03-26T23:16:14.165Z,3.70
2023-03-26T23:18:43.303Z,3.60
2023-03-26T23:21:19.129Z,3.60
2023-03-26T23:23:52.052Z,3.60
2023-03-26T23:26:21.365Z,3.50
2023-03-26T23:28:48.524Z,3.50
2023-03-26T23:31:15.193Z,3.40
2023-03-26T23:33:46.030Z,3.40
2023-03-26T23:36:14.846Z,3.40
2023-03-26T23:38:46.656Z,3.30
2023-03-26T23:41:17.551Z,3.30
2023-03-26T23:43:53.710Z,3.20
2023-03-26T23:46:23.451Z,3.20
2023-03-26T23:48:59.537Z,3.00
2023-03-26T23:51:26.243Z,3.00
2023-03-26T23:53:55.546Z,3.00
2023-03-26T23:56:23.364Z,3.00
2023-03-26T23:58:50.180Z,3.00
